Data Viewer
| City | State | Eastern Time | Source | 1 Hour Temp Max | 1 Hour Temp Min | 1 Hour Dew Point Max | 1 Hour Dew Point Min | 1 Hour RH Max | 1 Hour RH Min | 1 Hour BP Max | 1 Hour BP Min | 1 Hour Precip | 1 Hour Wind Max | 1 Hour Wind Max Dir |
|---|---|---|---|---|---|---|---|---|---|---|---|---|---|---|
| Moorestown | NJ | 2026-05-07 12:00 | Mesonet | 60 | 56 | 47 | 39 | 68 | 46 | 29.89 | 29.85 | 0.00 | 16 | NW |
| Moorestown | NJ | 2026-05-08 01:00 | Mesonet | 54 | 54 | 46 | 45 | 75 | 71 | 29.83 | 29.81 | 0.00 | 11 | ESE |
| Moorestown | NJ | 2026-05-08 10:00 | Mesonet | 59 | 56 | 37 | 30 | 48 | 34 | 29.96 | 29.95 | 0.00 | 12 | N |
| Moorestown | NJ | 2026-05-08 09:00 | Mesonet | 56 | 52 | 42 | 34 | 66 | 44 | 29.97 | 29.95 | 0.00 | 11 | NNW |
| Moorestown | NJ | 2026-05-08 08:00 | Mesonet | 52 | 48 | 42 | 40 | 76 | 63 | 29.96 | 29.94 | 0.00 | 8 | NNW |
| Moorestown | NJ | 2026-05-08 07:00 | Mesonet | 48 | 43 | 41 | 38 | 86 | 76 | 29.95 | 29.93 | 0.00 | 4 | NW |
| Moorestown | NJ | 2026-05-08 06:00 | Mesonet | 47 | 44 | 39 | 38 | 81 | 71 | 29.93 | 29.92 | 0.00 | 5 | NW |
| Moorestown | NJ | 2026-05-08 05:00 | Mesonet | 50 | 47 | 39 | 39 | 71 | 64 | 29.92 | 29.89 | 0.00 | 14 | SW |
| Moorestown | NJ | 2026-05-08 04:00 | Mesonet | 53 | 50 | 42 | 39 | 65 | 59 | 29.89 | 29.85 | 0.00 | 20 | WSW |
| Moorestown | NJ | 2026-05-08 03:00 | Mesonet | 54 | 52 | 45 | 42 | 75 | 65 | 29.85 | 29.82 | 0.00 | 15 | S |
| Moorestown | NJ | 2026-05-08 02:00 | Mesonet | 55 | 54 | 46 | 44 | 73 | 68 | 29.83 | 29.82 | 0.00 | 9 | SE |
| Moorestown | NJ | 2026-05-08 00:00 | Mesonet | 54 | 52 | 46 | 45 | 78 | 70 | 29.82 | 29.81 | 0.00 | 15 | NNW |
| Moorestown | NJ | 2026-05-07 13:00 | Mesonet | 62 | 59 | 45 | 36 | 57 | 39 | 29.86 | 29.83 | 0.00 | 15 | NNW |
| Moorestown | NJ | 2026-05-07 23:00 | Mesonet | 54 | 52 | 46 | 45 | 77 | 72 | 29.82 | 29.81 | 0.00 | 9 | NNW |
| Moorestown | NJ | 2026-05-07 22:00 | Mesonet | 57 | 54 | 46 | 44 | 72 | 62 | 29.82 | 29.80 | 0.00 | 11 | NNW |
| Moorestown | NJ | 2026-05-07 21:00 | Mesonet | 61 | 57 | 45 | 33 | 64 | 35 | 29.80 | 29.77 | 0.00 | 12 | NW |
| Moorestown | NJ | 2026-05-07 20:00 | Mesonet | 64 | 60 | 37 | 32 | 39 | 30 | 29.77 | 29.76 | 0.00 | 7 | NW |
| Moorestown | NJ | 2026-05-07 19:00 | Mesonet | 66 | 63 | 37 | 31 | 37 | 29 | 29.77 | 29.76 | 0.00 | 12 | NNW |
| Moorestown | NJ | 2026-05-07 18:00 | Mesonet | 66 | 64 | 38 | 31 | 36 | 28 | 29.77 | 29.76 | 0.00 | 13 | NNW |
| Moorestown | NJ | 2026-05-07 17:00 | Mesonet | 66 | 64 | 39 | 31 | 38 | 28 | 29.77 | 29.76 | 0.00 | 15 | N |
| Moorestown | NJ | 2026-05-07 16:00 | Mesonet | 66 | 63 | 40 | 32 | 41 | 28 | 29.80 | 29.77 | 0.00 | 16 | NNW |
| Moorestown | NJ | 2026-05-07 15:00 | Mesonet | 65 | 63 | 42 | 32 | 46 | 30 | 29.81 | 29.79 | 0.00 | 14 | NW |
| Moorestown | NJ | 2026-05-07 14:00 | Mesonet | 64 | 61 | 43 | 33 | 49 | 34 | 29.84 | 29.81 | 0.00 | 15 | N |
| Moorestown | NJ | 2026-05-08 11:00 | Mesonet | 60 | 58 | 35 | 30 | 41 | 33 | 29.95 | 29.95 | 0.00 | 15 | W |
data collection created in 0.0096249580383301 (queried in 0.003521) rendered in: 5.2928924560547E-5

